sensor_id;sensor_type;location;lat;lon;timestamp;temperature;humidity
10447;DHT22;5271;44.422;26.092;2023-05-16T00:02:06;16.40;94.50
10447;DHT22;5271;44.422;26.092;2023-05-16T00:04:35;16.30;94.50
10447;DHT22;5271;44.422;26.092;2023-05-16T00:07:02;16.30;94.60
10447;DHT22;5271;44.422;26.092;2023-05-16T00:09:30;16.30;94.70
10447;DHT22;5271;44.422;26.092;2023-05-16T00:11:57;16.20;94.80
10447;DHT22;5271;44.422;26.092;2023-05-16T00:14:24;16.20;94.70
10447;DHT22;5271;44.422;26.092;2023-05-16T00:16:52;16.20;94.80
10447;DHT22;5271;44.422;26.092;2023-05-16T00:19:19;16.20;94.80
10447;DHT22;5271;44.422;26.092;2023-05-16T00:21:46;16.20;94.90
10447;DHT22;5271;44.422;26.092;2023-05-16T00:24:13;16.20;95.00
10447;DHT22;5271;44.422;26.092;2023-05-16T00:26:41;16.20;95.00
10447;DHT22;5271;44.422;26.092;2023-05-16T00:29:08;16.20;94.90
10447;DHT22;5271;44.422;26.092;2023-05-16T00:31:35;16.20;95.00
10447;DHT22;5271;44.422;26.092;2023-05-16T00:34:02;16.20;95.00
10447;DHT22;5271;44.422;26.092;2023-05-16T00:36:28;16.20;95.00
10447;DHT22;5271;44.422;26.092;2023-05-16T00:38:56;16.20;95.10
10447;DHT22;5271;44.422;26.092;2023-05-16T00:41:23;16.20;95.00
10447;DHT22;5271;44.422;26.092;2023-05-16T00:43:51;16.10;95.20
10447;DHT22;5271;44.422;26.092;2023-05-16T00:46:18;16.10;95.20
10447;DHT22;5271;44.422;26.092;2023-05-16T00:48:45;16.10;95.10
10447;DHT22;5271;44.422;26.092;2023-05-16T00:51:12;16.00;95.30
10447;DHT22;5271;44.422;26.092;2023-05-16T00:53:39;16.00;95.30
10447;DHT22;5271;44.422;26.092;2023-05-16T00:56:06;16.00;95.40
10447;DHT22;5271;44.422;26.092;2023-05-16T00:58:33;15.90;95.40
10447;DHT22;5271;44.422;26.092;2023-05-16T01:01:02;16.00;95.40
10447;DHT22;5271;44.422;26.092;2023-05-16T01:03:29;16.00;95.40
10447;DHT22;5271;44.422;26.092;2023-05-16T01:05:57;16.00;95.40
10447;DHT22;5271;44.422;26.092;2023-05-16T01:08:24;15.90;95.50
10447;DHT22;5271;44.422;26.092;2023-05-16T01:10:58;15.90;95.40
10447;DHT22;5271;44.422;26.092;2023-05-16T01:13:30;15.90;95.50
10447;DHT22;5271;44.422;26.092;2023-05-16T01:16:12;15.90;95.50
10447;DHT22;5271;44.422;26.092;2023-05-16T01:18:49;15.90;95.50
10447;DHT22;5271;44.422;26.092;2023-05-16T01:21:23;15.90;95.50
10447;DHT22;5271;44.422;26.092;2023-05-16T01:23:59;15.90;95.60
10447;DHT22;5271;44.422;26.092;2023-05-16T01:26:31;15.90;95.50
10447;DHT22;5271;44.422;26.092;2023-05-16T01:28:58;15.90;95.50
10447;DHT22;5271;44.422;26.092;2023-05-16T01:31:26;15.90;95.60
10447;DHT22;5271;44.422;26.092;2023-05-16T01:33:53;15.90;95.50
10447;DHT22;5271;44.422;26.092;2023-05-16T01:36:23;15.90;95.60
10447;DHT22;5271;44.422;26.092;2023-05-16T01:39:00;15.80;95.70
10447;DHT22;5271;44.422;26.092;2023-05-16T01:41:37;15.80;96.00
10447;DHT22;5271;44.422;26.092;2023-05-16T01:44:10;15.90;95.70
10447;DHT22;5271;44.422;26.092;2023-05-16T01:46:40;15.90;95.60
10447;DHT22;5271;44.422;26.092;2023-05-16T01:49:14;15.90;95.70
10447;DHT22;5271;44.422;26.092;2023-05-16T01:51:46;15.90;95.70
10447;DHT22;5271;44.422;26.092;2023-05-16T01:54:17;15.90;95.60
10447;DHT22;5271;44.422;26.092;2023-05-16T01:56:49;15.90;95.70
10447;DHT22;5271;44.422;26.092;2023-05-16T01:59:17;15.90;95.70
10447;DHT22;5271;44.422;26.092;2023-05-16T02:01:45;15.90;95.80
10447;DHT22;5271;44.422;26.092;2023-05-16T02:04:11;15.90;95.80
10447;DHT22;5271;44.422;26.092;2023-05-16T02:06:39;15.90;95.80
10447;DHT22;5271;44.422;26.092;2023-05-16T02:09:06;15.90;95.90
10447;DHT22;5271;44.422;26.092;2023-05-16T02:11:33;15.90;95.90
10447;DHT22;5271;44.422;26.092;2023-05-16T02:14:02;15.90;95.90
10447;DHT22;5271;44.422;26.092;2023-05-16T02:16:29;15.90;95.90
10447;DHT22;5271;44.422;26.092;2023-05-16T02:18:56;15.90;95.80
10447;DHT22;5271;44.422;26.092;2023-05-16T02:21:23;16.00;95.90
10447;DHT22;5271;44.422;26.092;2023-05-16T02:23:50;15.90;95.90
10447;DHT22;5271;44.422;26.092;2023-05-16T02:26:17;15.90;95.90
10447;DHT22;5271;44.422;26.092;2023-05-16T02:28:44;15.90;96.10
10447;DHT22;5271;44.422;26.092;2023-05-16T02:31:12;15.90;96.00
10447;DHT22;5271;44.422;26.092;2023-05-16T02:33:39;15.80;96.20
10447;DHT22;5271;44.422;26.092;2023-05-16T02:36:06;15.80;96.20
10447;DHT22;5271;44.422;26.092;2023-05-16T02:38:33;15.80;96.20
10447;DHT22;5271;44.422;26.092;2023-05-16T02:41:00;15.80;96.30
10447;DHT22;5271;44.422;26.092;2023-05-16T02:43:27;15.80;96.30
10447;DHT22;5271;44.422;26.092;2023-05-16T02:45:54;15.70;96.50
10447;DHT22;5271;44.422;26.092;2023-05-16T02:48:22;15.70;96.60
10447;DHT22;5271;44.422;26.092;2023-05-16T02:50:49;15.70;96.50
10447;DHT22;5271;44.422;26.092;2023-05-16T02:53:16;15.70;96.80
10447;DHT22;5271;44.422;26.092;2023-05-16T02:55:43;15.80;96.50
10447;DHT22;5271;44.422;26.092;2023-05-16T02:58:10;15.80;96.50
10447;DHT22;5271;44.422;26.092;2023-05-16T03:00:37;15.80;96.60
10447;DHT22;5271;44.422;26.092;2023-05-16T03:03:03;15.80;96.50
10447;DHT22;5271;44.422;26.092;2023-05-16T03:05:32;15.70;96.50
10447;DHT22;5271;44.422;26.092;2023-05-16T03:07:59;15.70;96.60
10447;DHT22;5271;44.422;26.092;2023-05-16T03:10:26;15.70;96.60
10447;DHT22;5271;44.422;26.092;2023-05-16T03:12:52;15.70;96.60
10447;DHT22;5271;44.422;26.092;2023-05-16T03:15:19;15.80;96.50
10447;DHT22;5271;44.422;26.092;2023-05-16T03:17:46;15.70;96.60
10447;DHT22;5271;44.422;26.092;2023-05-16T03:20:13;15.70;96.70
10447;DHT22;5271;44.422;26.092;2023-05-16T03:22:41;15.70;96.70
10447;DHT22;5271;44.422;26.092;2023-05-16T03:25:09;15.70;96.60
10447;DHT22;5271;44.422;26.092;2023-05-16T03:27:36;15.70;96.70
10447;DHT22;5271;44.422;26.092;2023-05-16T03:30:03;15.70;96.60
10447;DHT22;5271;44.422;26.092;2023-05-16T03:32:31;15.70;96.70
10447;DHT22;5271;44.422;26.092;2023-05-16T03:34:58;15.70;96.70
10447;DHT22;5271;44.422;26.092;2023-05-16T03:37:25;15.70;96.60
10447;DHT22;5271;44.422;26.092;2023-05-16T03:39:53;15.70;96.50
10447;DHT22;5271;44.422;26.092;2023-05-16T03:42:20;15.70;96.50
10447;DHT22;5271;44.422;26.092;2023-05-16T03:44:47;15.70;96.50
10447;DHT22;5271;44.422;26.092;2023-05-16T03:47:14;15.70;96.60
10447;DHT22;5271;44.422;26.092;2023-05-16T03:49:41;15.70;96.70
10447;DHT22;5271;44.422;26.092;2023-05-16T03:52:08;15.70;96.70
10447;DHT22;5271;44.422;26.092;2023-05-16T03:54:35;15.70;96.80
10447;DHT22;5271;44.422;26.092;2023-05-16T03:57:04;15.60;96.80
10447;DHT22;5271;44.422;26.092;2023-05-16T03:59:31;15.60;96.80
10447;DHT22;5271;44.422;26.092;2023-05-16T04:01:59;15.60;96.70
10447;DHT22;5271;44.422;26.092;2023-05-16T04:04:26;15.60;96.80
10447;DHT22;5271;44.422;26.092;2023-05-16T04:06:53;15.50;96.90
10447;DHT22;5271;44.422;26.092;2023-05-16T04:09:19;15.50;96.90
10447;DHT22;5271;44.422;26.092;2023-05-16T04:11:46;15.50;97.00
10447;DHT22;5271;44.422;26.092;2023-05-16T04:14:15;15.40;97.10
10447;DHT22;5271;44.422;26.092;2023-05-16T04:16:42;15.40;97.00
10447;DHT22;5271;44.422;26.092;2023-05-16T04:19:08;15.50;97.20
10447;DHT22;5271;44.422;26.092;2023-05-16T04:21:35;15.40;97.10
10447;DHT22;5271;44.422;26.092;2023-05-16T04:24:02;15.40;97.20
10447;DHT22;5271;44.422;26.092;2023-05-16T04:26:29;15.30;97.10
10447;DHT22;5271;44.422;26.092;2023-05-16T04:28:56;15.30;97.20
10447;DHT22;5271;44.422;26.092;2023-05-16T04:31:25;15.20;97.30
10447;DHT22;5271;44.422;26.092;2023-05-16T04:33:52;15.20;97.40
10447;DHT22;5271;44.422;26.092;2023-05-16T04:36:19;15.20;97.40
10447;DHT22;5271;44.422;26.092;2023-05-16T04:38:46;15.30;97.30
10447;DHT22;5271;44.422;26.092;2023-05-16T04:41:13;15.30;97.30
10447;DHT22;5271;44.422;26.092;2023-05-16T04:43:40;15.30;97.40
10447;DHT22;5271;44.422;26.092;2023-05-16T04:46:07;15.30;97.20
10447;DHT22;5271;44.422;26.092;2023-05-16T04:48:35;15.40;97.10
10447;DHT22;5271;44.422;26.092;2023-05-16T04:51:03;15.40;97.20
10447;DHT22;5271;44.422;26.092;2023-05-16T04:53:29;15.40;97.20
10447;DHT22;5271;44.422;26.092;2023-05-16T04:55:56;15.40;97.30
10447;DHT22;5271;44.422;26.092;2023-05-16T04:58:23;15.40;97.20
10447;DHT22;5271;44.422;26.092;2023-05-16T05:00:50;15.40;97.20
10447;DHT22;5271;44.422;26.092;2023-05-16T05:03:17;15.40;97.30
10447;DHT22;5271;44.422;26.092;2023-05-16T05:05:47;15.40;97.60
10447;DHT22;5271;44.422;26.092;2023-05-16T05:08:13;15.40;97.50
10447;DHT22;5271;44.422;26.092;2023-05-16T05:10:41;15.40;97.50
10447;DHT22;5271;44.422;26.092;2023-05-16T05:13:07;15.40;97.40
10447;DHT22;5271;44.422;26.092;2023-05-16T05:15:34;15.30;97.50
10447;DHT22;5271;44.422;26.092;2023-05-16T05:18:01;15.30;97.30
10447;DHT22;5271;44.422;26.092;2023-05-16T05:20:28;15.30;97.30
10447;DHT22;5271;44.422;26.092;2023-05-16T05:22:57;15.30;97.30
10447;DHT22;5271;44.422;26.092;2023-05-16T05:25:24;15.30;97.30
10447;DHT22;5271;44.422;26.092;2023-05-16T05:27:51;15.30;97.40
10447;DHT22;5271;44.422;26.092;2023-05-16T05:30:18;15.30;97.30
10447;DHT22;5271;44.422;26.092;2023-05-16T05:32:45;15.20;97.50
10447;DHT22;5271;44.422;26.092;2023-05-16T05:35:12;15.20;97.40
10447;DHT22;5271;44.422;26.092;2023-05-16T05:37:40;15.30;97.60
10447;DHT22;5271;44.422;26.092;2023-05-16T05:40:09;15.30;97.50
10447;DHT22;5271;44.422;26.092;2023-05-16T05:42:36;15.30;97.50
10447;DHT22;5271;44.422;26.092;2023-05-16T05:45:03;15.30;97.40
10447;DHT22;5271;44.422;26.092;2023-05-16T05:47:30;15.30;97.50
10447;DHT22;5271;44.422;26.092;2023-05-16T05:49:57;15.30;97.50
10447;DHT22;5271;44.422;26.092;2023-05-16T05:52:24;15.30;97.50
10447;DHT22;5271;44.422;26.092;2023-05-16T05:54:52;15.30;97.50
10447;DHT22;5271;44.422;26.092;2023-05-16T05:57:21;15.30;97.50
10447;DHT22;5271;44.422;26.092;2023-05-16T05:59:47;15.30;97.70
10447;DHT22;5271;44.422;26.092;2023-05-16T06:02:14;15.30;97.40
10447;DHT22;5271;44.422;26.092;2023-05-16T06:04:42;15.30;97.40
10447;DHT22;5271;44.422;26.092;2023-05-16T06:07:09;15.30;97.40
10447;DHT22;5271;44.422;26.092;2023-05-16T06:09:36;15.30;97.30
10447;DHT22;5271;44.422;26.092;2023-05-16T06:12:04;15.30;97.30
10447;DHT22;5271;44.422;26.092;2023-05-16T06:14:32;15.30;97.30
10447;DHT22;5271;44.422;26.092;2023-05-16T06:16:59;15.30;97.40
10447;DHT22;5271;44.422;26.092;2023-05-16T06:19:26;15.30;97.40
10447;DHT22;5271;44.422;26.092;2023-05-16T06:21:52;15.20;97.30
10447;DHT22;5271;44.422;26.092;2023-05-16T06:24:19;15.20;97.40
10447;DHT22;5271;44.422;26.092;2023-05-16T06:26:46;15.20;97.50
10447;DHT22;5271;44.422;26.092;2023-05-16T06:29:14;15.20;97.60
10447;DHT22;5271;44.422;26.092;2023-05-16T06:31:44;15.20;97.50
10447;DHT22;5271;44.422;26.092;2023-05-16T06:34:11;15.20;97.50
10447;DHT22;5271;44.422;26.092;2023-05-16T06:36:38;15.20;97.60
10447;DHT22;5271;44.422;26.092;2023-05-16T06:39:05;15.20;97.60
10447;DHT22;5271;44.422;26.092;2023-05-16T06:41:32;15.30;97.40
10447;DHT22;5271;44.422;26.092;2023-05-16T06:43:58;15.20;97.50
10447;DHT22;5271;44.422;26.092;2023-05-16T06:46:25;15.20;97.50
10447;DHT22;5271;44.422;26.092;2023-05-16T06:48:54;15.30;97.50
10447;DHT22;5271;44.422;26.092;2023-05-16T06:51:20;15.30;97.40
10447;DHT22;5271;44.422;26.092;2023-05-16T06:53:47;15.30;97.30
10447;DHT22;5271;44.422;26.092;2023-05-16T06:56:14;15.40;97.30
10447;DHT22;5271;44.422;26.092;2023-05-16T06:58:41;15.40;97.30
10447;DHT22;5271;44.422;26.092;2023-05-16T07:01:08;15.40;97.20
10447;DHT22;5271;44.422;26.092;2023-05-16T07:03:34;15.30;97.10
10447;DHT22;5271;44.422;26.092;2023-05-16T07:06:03;15.30;97.10
10447;DHT22;5271;44.422;26.092;2023-05-16T07:08:30;15.30;97.10
10447;DHT22;5271;44.422;26.092;2023-05-16T07:10:56;15.30;97.10
10447;DHT22;5271;44.422;26.092;2023-05-16T07:13:23;15.30;97.10
10447;DHT22;5271;44.422;26.092;2023-05-16T07:15:50;15.30;97.10
10447;DHT22;5271;44.422;26.092;2023-05-16T07:18:17;15.30;97.10
10447;DHT22;5271;44.422;26.092;2023-05-16T07:20:44;15.30;97.20
10447;DHT22;5271;44.422;26.092;2023-05-16T07:23:12;15.30;97.10
10447;DHT22;5271;44.422;26.092;2023-05-16T07:25:39;15.30;97.10
10447;DHT22;5271;44.422;26.092;2023-05-16T07:28:06;15.20;97.10
10447;DHT22;5271;44.422;26.092;2023-05-16T07:30:33;15.20;97.10
10447;DHT22;5271;44.422;26.092;2023-05-16T07:33:00;15.20;97.20
10447;DHT22;5271;44.422;26.092;2023-05-16T07:35:27;15.20;97.10
10447;DHT22;5271;44.422;26.092;2023-05-16T07:37:53;15.10;97.00
10447;DHT22;5271;44.422;26.092;2023-05-16T07:40:22;15.10;97.20
10447;DHT22;5271;44.422;26.092;2023-05-16T07:42:52;15.10;97.20
10447;DHT22;5271;44.422;26.092;2023-05-16T07:45:19;15.10;97.20
10447;DHT22;5271;44.422;26.092;2023-05-16T07:47:46;15.10;97.20
10447;DHT22;5271;44.422;26.092;2023-05-16T07:50:13;15.10;97.20
10447;DHT22;5271;44.422;26.092;2023-05-16T07:52:40;15.00;97.20
10447;DHT22;5271;44.422;26.092;2023-05-16T07:55:08;15.00;97.60
10447;DHT22;5271;44.422;26.092;2023-05-16T07:57:36;15.00;97.40
10447;DHT22;5271;44.422;26.092;2023-05-16T08:00:04;14.90;97.40
10447;DHT22;5271;44.422;26.092;2023-05-16T08:02:31;14.90;97.70
10447;DHT22;5271;44.422;26.092;2023-05-16T08:04:58;14.90;97.40
10447;DHT22;5271;44.422;26.092;2023-05-16T08:07:25;14.90;97.40
10447;DHT22;5271;44.422;26.092;2023-05-16T08:09:52;14.80;97.50
10447;DHT22;5271;44.422;26.092;2023-05-16T08:12:18;14.80;97.70
10447;DHT22;5271;44.422;26.092;2023-05-16T08:14:47;14.80;97.60
10447;DHT22;5271;44.422;26.092;2023-05-16T08:17:14;14.80;97.40
10447;DHT22;5271;44.422;26.092;2023-05-16T08:19:40;14.80;97.60
10447;DHT22;5271;44.422;26.092;2023-05-16T08:22:08;14.70;97.40
10447;DHT22;5271;44.422;26.092;2023-05-16T08:24:35;14.80;97.60
10447;DHT22;5271;44.422;26.092;2023-05-16T08:27:02;14.70;97.60
10447;DHT22;5271;44.422;26.092;2023-05-16T08:29:29;14.70;97.50
10447;DHT22;5271;44.422;26.092;2023-05-16T08:31:57;14.70;97.40
10447;DHT22;5271;44.422;26.092;2023-05-16T08:34:24;14.70;97.30
10447;DHT22;5271;44.422;26.092;2023-05-16T08:36:51;14.70;97.30
10447;DHT22;5271;44.422;26.092;2023-05-16T08:39:19;14.60;97.30
10447;DHT22;5271;44.422;26.092;2023-05-16T08:41:46;14.60;97.40
10447;DHT22;5271;44.422;26.092;2023-05-16T08:44:12;14.50;97.40
10447;DHT22;5271;44.422;26.092;2023-05-16T08:46:49;14.60;97.40
10447;DHT22;5271;44.422;26.092;2023-05-16T08:49:18;14.60;97.40
10447;DHT22;5271;44.422;26.092;2023-05-16T08:51:46;14.60;97.30
10447;DHT22;5271;44.422;26.092;2023-05-16T08:54:14;14.60;97.30
10447;DHT22;5271;44.422;26.092;2023-05-16T08:56:42;14.70;97.30
10447;DHT22;5271;44.422;26.092;2023-05-16T08:59:09;14.70;97.20
10447;DHT22;5271;44.422;26.092;2023-05-16T09:01:37;14.70;97.20
10447;DHT22;5271;44.422;26.092;2023-05-16T09:04:06;14.70;97.00
10447;DHT22;5271;44.422;26.092;2023-05-16T09:06:35;14.70;96.90
10447;DHT22;5271;44.422;26.092;2023-05-16T09:09:02;14.70;97.00
10447;DHT22;5271;44.422;26.092;2023-05-16T09:11:32;14.80;96.90
10447;DHT22;5271;44.422;26.092;2023-05-16T09:13:59;14.90;96.80
10447;DHT22;5271;44.422;26.092;2023-05-16T09:16:26;14.90;96.60
10447;DHT22;5271;44.422;26.092;2023-05-16T09:18:54;14.90;96.40
10447;DHT22;5271;44.422;26.092;2023-05-16T09:21:26;14.80;96.30
10447;DHT22;5271;44.422;26.092;2023-05-16T09:23:54;14.80;96.60
10447;DHT22;5271;44.422;26.092;2023-05-16T09:26:21;14.80;96.60
10447;DHT22;5271;44.422;26.092;2023-05-16T09:28:52;14.90;96.60
10447;DHT22;5271;44.422;26.092;2023-05-16T09:31:21;15.00;96.40
10447;DHT22;5271;44.422;26.092;2023-05-16T09:33:49;15.00;96.40
10447;DHT22;5271;44.422;26.092;2023-05-16T09:36:16;15.00;96.30
10447;DHT22;5271;44.422;26.092;2023-05-16T09:38:43;15.10;96.10
10447;DHT22;5271;44.422;26.092;2023-05-16T09:41:11;15.10;96.00
10447;DHT22;5271;44.422;26.092;2023-05-16T09:43:39;15.10;96.00
10447;DHT22;5271;44.422;26.092;2023-05-16T09:46:07;15.10;96.00
10447;DHT22;5271;44.422;26.092;2023-05-16T09:48:34;15.20;95.90
10447;DHT22;5271;44.422;26.092;2023-05-16T09:51:04;15.20;95.90
10447;DHT22;5271;44.422;26.092;2023-05-16T09:53:32;15.20;95.80
10447;DHT22;5271;44.422;26.092;2023-05-16T09:56:00;15.10;95.90
10447;DHT22;5271;44.422;26.092;2023-05-16T09:58:29;15.20;95.90
10447;DHT22;5271;44.422;26.092;2023-05-16T10:00:57;15.20;95.80
10447;DHT22;5271;44.422;26.092;2023-05-16T10:03:25;15.20;95.80
10447;DHT22;5271;44.422;26.092;2023-05-16T10:05:52;15.20;95.70
10447;DHT22;5271;44.422;26.092;2023-05-16T10:08:20;15.20;95.70
10447;DHT22;5271;44.422;26.092;2023-05-16T10:10:50;15.20;95.70
10447;DHT22;5271;44.422;26.092;2023-05-16T10:13:18;15.30;95.60
10447;DHT22;5271;44.422;26.092;2023-05-16T10:15:47;15.30;95.50
10447;DHT22;5271;44.422;26.092;2023-05-16T10:18:16;15.30;95.50
10447;DHT22;5271;44.422;26.092;2023-05-16T10:20:46;15.30;95.60
10447;DHT22;5271;44.422;26.092;2023-05-16T10:23:17;15.30;95.60
10447;DHT22;5271;44.422;26.092;2023-05-16T10:25:45;15.30;95.80
10447;DHT22;5271;44.422;26.092;2023-05-16T10:28:12;15.30;95.70
10447;DHT22;5271;44.422;26.092;2023-05-16T10:30:40;15.40;95.80
10447;DHT22;5271;44.422;26.092;2023-05-16T10:33:11;15.30;95.50
10447;DHT22;5271;44.422;26.092;2023-05-16T10:35:38;15.40;95.70
10447;DHT22;5271;44.422;26.092;2023-05-16T10:38:05;15.40;95.60
10447;DHT22;5271;44.422;26.092;2023-05-16T10:40:34;15.40;95.20
10447;DHT22;5271;44.422;26.092;2023-05-16T10:43:02;15.40;95.20
10447;DHT22;5271;44.422;26.092;2023-05-16T10:45:30;15.40;95.20
10447;DHT22;5271;44.422;26.092;2023-05-16T10:47:57;15.40;95.30
10447;DHT22;5271;44.422;26.092;2023-05-16T10:50:33;15.40;95.20
10447;DHT22;5271;44.422;26.092;2023-05-16T10:53:18;15.30;95.20
10447;DHT22;5271;44.422;26.092;2023-05-16T10:55:50;15.30;95.10
10447;DHT22;5271;44.422;26.092;2023-05-16T10:58:40;15.30;95.10
10447;DHT22;5271;44.422;26.092;2023-05-16T11:01:18;15.20;95.00
10447;DHT22;5271;44.422;26.092;2023-05-16T11:04:07;15.20;95.00
10447;DHT22;5271;44.422;26.092;2023-05-16T11:06:45;15.20;94.90
10447;DHT22;5271;44.422;26.092;2023-05-16T11:09:21;15.20;94.90
10447;DHT22;5271;44.422;26.092;2023-05-16T11:11:58;15.20;95.00
10447;DHT22;5271;44.422;26.092;2023-05-16T11:14:27;15.30;95.00
10447;DHT22;5271;44.422;26.092;2023-05-16T11:17:00;15.30;94.80
10447;DHT22;5271;44.422;26.092;2023-05-16T11:19:30;15.30;95.10
10447;DHT22;5271;44.422;26.092;2023-05-16T11:22:22;15.30;94.70
10447;DHT22;5271;44.422;26.092;2023-05-16T11:24:54;15.30;94.60
10447;DHT22;5271;44.422;26.092;2023-05-16T11:27:23;15.40;94.60
10447;DHT22;5271;44.422;26.092;2023-05-16T11:29:51;15.30;94.30
10447;DHT22;5271;44.422;26.092;2023-05-16T11:32:19;15.30;94.40
10447;DHT22;5271;44.422;26.092;2023-05-16T11:34:47;15.30;94.40
10447;DHT22;5271;44.422;26.092;2023-05-16T11:37:16;15.30;94.70
10447;DHT22;5271;44.422;26.092;2023-05-16T11:39:44;15.30;94.60
10447;DHT22;5271;44.422;26.092;2023-05-16T11:42:11;15.30;94.50
10447;DHT22;5271;44.422;26.092;2023-05-16T11:44:38;15.30;94.60
10447;DHT22;5271;44.422;26.092;2023-05-16T11:47:05;15.40;94.50
10447;DHT22;5271;44.422;26.092;2023-05-16T11:49:32;15.40;94.50
10447;DHT22;5271;44.422;26.092;2023-05-16T11:52:00;15.40;94.50
10447;DHT22;5271;44.422;26.092;2023-05-16T11:54:28;15.40;94.50
10447;DHT22;5271;44.422;26.092;2023-05-16T11:56:55;15.40;94.50
10447;DHT22;5271;44.422;26.092;2023-05-16T11:59:22;15.30;94.40
10447;DHT22;5271;44.422;26.092;2023-05-16T12:01:49;15.30;94.20
10447;DHT22;5271;44.422;26.092;2023-05-16T12:04:16;15.20;94.30
10447;DHT22;5271;44.422;26.092;2023-05-16T12:06:58;15.20;94.50
10447;DHT22;5271;44.422;26.092;2023-05-16T12:09:26;15.20;94.60
10447;DHT22;5271;44.422;26.092;2023-05-16T12:11:54;15.30;94.70
10447;DHT22;5271;44.422;26.092;2023-05-16T12:14:21;15.30;94.70
10447;DHT22;5271;44.422;26.092;2023-05-16T12:16:50;15.40;94.60
10447;DHT22;5271;44.422;26.092;2023-05-16T12:19:18;15.40;94.60
10447;DHT22;5271;44.422;26.092;2023-05-16T12:21:45;15.40;94.40
10447;DHT22;5271;44.422;26.092;2023-05-16T12:24:12;15.40;94.40
10447;DHT22;5271;44.422;26.092;2023-05-16T12:26:40;15.40;94.30
10447;DHT22;5271;44.422;26.092;2023-05-16T12:29:09;15.40;94.50
10447;DHT22;5271;44.422;26.092;2023-05-16T12:31:37;15.40;94.40
10447;DHT22;5271;44.422;26.092;2023-05-16T12:34:14;15.40;94.30
10447;DHT22;5271;44.422;26.092;2023-05-16T12:36:41;15.40;94.40
10447;DHT22;5271;44.422;26.092;2023-05-16T12:39:11;15.40;94.40
10447;DHT22;5271;44.422;26.092;2023-05-16T12:41:40;15.40;94.30
10447;DHT22;5271;44.422;26.092;2023-05-16T12:44:12;15.40;94.20
10447;DHT22;5271;44.422;26.092;2023-05-16T12:46:45;15.40;94.10
10447;DHT22;5271;44.422;26.092;2023-05-16T12:49:12;15.40;94.20
10447;DHT22;5271;44.422;26.092;2023-05-16T12:51:46;15.40;94.10
10447;DHT22;5271;44.422;26.092;2023-05-16T12:54:13;15.40;94.20
10447;DHT22;5271;44.422;26.092;2023-05-16T12:56:41;15.40;94.20
10447;DHT22;5271;44.422;26.092;2023-05-16T12:59:08;15.40;94.20
10447;DHT22;5271;44.422;26.092;2023-05-16T13:01:38;15.30;94.30
10447;DHT22;5271;44.422;26.092;2023-05-16T13:04:06;15.40;94.40
10447;DHT22;5271;44.422;26.092;2023-05-16T13:06:33;15.40;94.20
10447;DHT22;5271;44.422;26.092;2023-05-16T13:09:02;15.40;94.20
10447;DHT22;5271;44.422;26.092;2023-05-16T13:11:29;15.40;94.10
10447;DHT22;5271;44.422;26.092;2023-05-16T13:13:56;15.40;94.20
10447;DHT22;5271;44.422;26.092;2023-05-16T13:16:23;15.40;94.00
10447;DHT22;5271;44.422;26.092;2023-05-16T13:18:51;15.40;94.00
10447;DHT22;5271;44.422;26.092;2023-05-16T13:21:18;15.40;94.10
10447;DHT22;5271;44.422;26.092;2023-05-16T13:23:47;15.40;94.10
10447;DHT22;5271;44.422;26.092;2023-05-16T13:26:13;15.30;94.10
10447;DHT22;5271;44.422;26.092;2023-05-16T13:28:40;15.30;94.20
10447;DHT22;5271;44.422;26.092;2023-05-16T13:31:07;15.40;94.30
10447;DHT22;5271;44.422;26.092;2023-05-16T13:33:34;15.40;94.40
10447;DHT22;5271;44.422;26.092;2023-05-16T13:36:04;15.50;94.40
10447;DHT22;5271;44.422;26.092;2023-05-16T13:38:30;15.50;94.20
10447;DHT22;5271;44.422;26.092;2023-05-16T13:40:57;15.50;94.10
10447;DHT22;5271;44.422;26.092;2023-05-16T13:43:24;15.50;94.10
10447;DHT22;5271;44.422;26.092;2023-05-16T13:45:51;15.60;94.00
10447;DHT22;5271;44.422;26.092;2023-05-16T13:48:18;15.50;93.80
10447;DHT22;5271;44.422;26.092;2023-05-16T13:50:45;15.50;93.90
10447;DHT22;5271;44.422;26.092;2023-05-16T13:53:13;15.50;94.10
10447;DHT22;5271;44.422;26.092;2023-05-16T13:55:40;15.50;94.10
10447;DHT22;5271;44.422;26.092;2023-05-16T13:58:07;15.60;94.10
10447;DHT22;5271;44.422;26.092;2023-05-16T14:00:34;15.60;94.00
10447;DHT22;5271;44.422;26.092;2023-05-16T14:03:01;15.60;94.10
10447;DHT22;5271;44.422;26.092;2023-05-16T14:05:28;15.60;94.00
10447;DHT22;5271;44.422;26.092;2023-05-16T14:07:55;15.70;93.70
10447;DHT22;5271;44.422;26.092;2023-05-16T14:10:23;15.60;93.70
10447;DHT22;5271;44.422;26.092;2023-05-16T14:12:50;15.60;93.60
10447;DHT22;5271;44.422;26.092;2023-05-16T14:15:17;15.60;93.50
10447;DHT22;5271;44.422;26.092;2023-05-16T14:17:44;15.60;93.50
10447;DHT22;5271;44.422;26.092;2023-05-16T14:20:12;15.50;93.70
10447;DHT22;5271;44.422;26.092;2023-05-16T14:22:39;15.60;93.60
10447;DHT22;5271;44.422;26.092;2023-05-16T14:25:07;15.60;93.70
10447;DHT22;5271;44.422;26.092;2023-05-16T14:27:35;15.60;93.70
10447;DHT22;5271;44.422;26.092;2023-05-16T14:30:03;15.60;93.60
10447;DHT22;5271;44.422;26.092;2023-05-16T14:32:30;15.60;94.00
10447;DHT22;5271;44.422;26.092;2023-05-16T14:34:57;15.60;93.70
10447;DHT22;5271;44.422;26.092;2023-05-16T14:37:24;15.60;93.60
10447;DHT22;5271;44.422;26.092;2023-05-16T14:39:51;15.50;93.50
10447;DHT22;5271;44.422;26.092;2023-05-16T14:42:18;15.40;93.50
10447;DHT22;5271;44.422;26.092;2023-05-16T14:44:47;15.40;93.60
10447;DHT22;5271;44.422;26.092;2023-05-16T14:47:14;15.40;93.70
10447;DHT22;5271;44.422;26.092;2023-05-16T14:49:41;15.40;93.70
10447;DHT22;5271;44.422;26.092;2023-05-16T14:52:07;15.40;93.70
10447;DHT22;5271;44.422;26.092;2023-05-16T14:54:34;15.40;93.60
10447;DHT22;5271;44.422;26.092;2023-05-16T14:57:01;15.40;93.70
10447;DHT22;5271;44.422;26.092;2023-05-16T14:59:29;15.40;93.70
10447;DHT22;5271;44.422;26.092;2023-05-16T15:01:57;15.50;93.70
10447;DHT22;5271;44.422;26.092;2023-05-16T15:04:26;15.60;93.70
10447;DHT22;5271;44.422;26.092;2023-05-16T15:06:53;15.60;93.50
10447;DHT22;5271;44.422;26.092;2023-05-16T15:09:20;15.70;93.40
10447;DHT22;5271;44.422;26.092;2023-05-16T15:11:46;15.70;93.30
10447;DHT22;5271;44.422;26.092;2023-05-16T15:14:13;15.70;93.30
10447;DHT22;5271;44.422;26.092;2023-05-16T15:16:41;15.70;93.10
10447;DHT22;5271;44.422;26.092;2023-05-16T15:19:09;15.70;93.00
10447;DHT22;5271;44.422;26.092;2023-05-16T15:21:36;15.70;92.90
10447;DHT22;5271;44.422;26.092;2023-05-16T15:24:03;15.60;93.00
10447;DHT22;5271;44.422;26.092;2023-05-16T15:26:30;15.70;93.00
10447;DHT22;5271;44.422;26.092;2023-05-16T15:28:57;15.70;92.90
10447;DHT22;5271;44.422;26.092;2023-05-16T15:31:24;15.70;92.90
10447;DHT22;5271;44.422;26.092;2023-05-16T15:33:50;15.70;92.90
10447;DHT22;5271;44.422;26.092;2023-05-16T15:36:19;15.70;92.80